Time;durP1;ratioP1;P1;durP2;ratioP2;P2;SDS_P1;SDS_P2;PMS_P1;PMS_P2;Temp;Humidity;BMP_temperature;BMP_pressure;BME280_temperature;BME280_humidity;BME280_pressure;Samples;Min_cycle;Max_cycle;Signal;HPM_P1;HPM_P2
2022/11/23 00:01:36;;;;;;;18.60;11.68;;;19.20;61.10;;;;;;4974873;28;20120;-84
2022/11/23 00:04:11;;;;;;;18.38;12.18;;;19.20;61.30;;;;;;4936926;28;20402;-85
2022/11/23 00:06:46;;;;;;;;;;;19.20;61.20;;;;;;4963666;28;20123;-85
2022/11/23 00:09:12;;;;;;;19.65;12.07;;;19.20;61.30;;;;;;4957347;28;19910;-85
2022/11/23 00:11:39;;;;;;;21.88;12.27;;;19.20;61.20;;;;;;4915371;28;20119;-84
2022/11/23 00:14:05;;;;;;;22.10;12.30;;;19.20;61.30;;;;;;4913294;28;20046;-85
2022/11/23 00:16:31;;;;;;;20.60;12.48;;;19.20;61.30;;;;;;4920441;28;20043;-82
2022/11/23 00:19:00;;;;;;;21.23;12.75;;;19.20;61.40;;;;;;4940706;28;20050;-83
2022/11/23 00:21:28;;;;;;;21.65;11.50;;;19.20;61.50;;;;;;4954285;28;20027;-86
2022/11/23 00:23:54;;;;;;;21.25;11.45;;;19.20;61.80;;;;;;4942548;28;20046;-83
2022/11/23 00:26:20;;;;;;;18.42;11.68;;;19.20;61.60;;;;;;4960560;28;20050;-83
2022/11/23 00:28:46;;;;;;;27.30;12.57;;;19.30;62.30;;;;;;4964122;28;20045;-84
2022/11/23 00:31:15;;;;;;;26.42;13.82;;;19.30;61.70;;;;;;4947838;28;20113;-83
2022/11/23 00:33:54;;;;;;;24.00;13.95;;;19.30;62.00;;;;;;4956938;28;20038;-84
2022/11/23 00:36:22;;;;;;;23.65;13.93;;;19.20;61.00;;;;;;4919702;28;20032;-82
2022/11/23 00:38:49;;;;;;;26.67;12.40;;;19.30;61.00;;;;;;4942898;28;20030;-79
2022/11/23 00:41:18;;;;;;;28.60;13.75;;;19.30;62.20;;;;;;4948814;28;20059;-80
2022/11/23 00:43:44;;;;;;;27.05;12.40;;;19.30;61.00;;;;;;4938777;28;20031;-80
2022/11/23 00:46:18;;;;;;;24.58;12.50;;;19.30;61.40;;;;;;4961740;28;20114;-79
2022/11/23 00:48:45;;;;;;;23.63;13.07;;;19.30;62.50;;;;;;4966147;28;20031;-83
2022/11/23 00:51:14;;;;;;;24.83;13.50;;;19.30;61.60;;;;;;4958907;28;20109;-81
2022/11/23 00:53:41;;;;;;;24.08;12.32;;;19.30;61.40;;;;;;4939028;28;20031;-81
2022/11/23 00:56:07;;;;;;;22.33;12.48;;;19.30;61.50;;;;;;4978373;28;20387;-84
2022/11/23 00:58:36;;;;;;;19.85;11.82;;;19.30;61.50;;;;;;4960567;28;20027;-83
2022/11/23 01:01:14;;;;;;;24.60;12.27;;;19.30;61.50;;;;;;4970936;28;20042;-83
2022/11/23 01:03:44;;;;;;;21.52;11.82;;;19.30;61.70;;;;;;4970163;28;20030;-81
2022/11/23 01:06:22;;;;;;;23.98;12.60;;;19.30;61.50;;;;;;4963891;28;20506;-85
2022/11/23 01:08:56;;;;;;;19.55;11.75;;;19.30;61.60;;;;;;4937085;28;20058;-82
2022/11/23 01:11:24;;;;;;;21.92;11.50;;;19.30;61.50;;;;;;4966635;28;20045;-82
2022/11/23 01:13:50;;;;;;;20.23;11.50;;;19.30;61.60;;;;;;4947103;28;20484;-87
2022/11/23 01:16:26;;;;;;;21.77;12.05;;;19.30;61.60;;;;;;4938987;28;20186;-85
2022/11/23 01:18:57;;;;;;;20.55;11.85;;;19.30;61.60;;;;;;4940207;28;20118;-83
2022/11/23 01:21:24;;;;;;;21.88;11.35;;;19.30;61.80;;;;;;4961594;28;20131;-84
2022/11/23 01:23:51;;;;;;;23.10;11.60;;;19.30;61.70;;;;;;4970086;28;20085;-84
2022/11/23 01:26:41;;;;;;;19.33;10.85;;;19.30;61.70;;;;;;4965634;28;20117;-85
2022/11/23 01:29:07;;;;;;;21.88;10.77;;;19.30;61.80;;;;;;4915586;28;20039;-83
2022/11/23 01:31:33;;;;;;;20.70;11.77;;;19.30;61.60;;;;;;4948822;28;20108;-83
2022/11/23 01:34:04;;;;;;;22.75;10.80;;;19.30;61.70;;;;;;4954661;28;20030;-81
2022/11/23 01:36:34;;;;;;;18.60;11.27;;;19.30;61.90;;;;;;4937674;28;20114;-80
2022/11/23 01:39:03;;;;;;;18.10;11.23;;;19.30;61.80;;;;;;4964623;28;20057;-83
2022/11/23 01:41:32;;;;;;;21.75;11.07;;;19.30;61.80;;;;;;4960278;28;20165;-83
2022/11/23 01:43:58;;;;;;;37.58;11.10;;;19.30;61.70;;;;;;4954387;28;20035;-82
2022/11/23 01:46:24;;;;;;;22.58;10.35;;;19.30;61.70;;;;;;4957549;28;20066;-89
2022/11/23 01:49:06;;;;;;;26.95;11.27;;;19.30;62.30;;;;;;4952600;28;20508;-84
2022/11/23 01:51:38;;;;;;;24.10;11.18;;;19.30;62.00;;;;;;4938165;28;20035;-83
2022/11/23 01:54:10;;;;;;;22.55;11.05;;;19.30;62.00;;;;;;4986573;28;20046;-79
2022/11/23 01:56:46;;;;;;;21.02;11.25;;;19.30;61.80;;;;;;4973980;28;20372;-83
2022/11/23 01:59:16;;;;;;;22.67;11.93;;;19.30;62.00;;;;;;4941215;29;20104;-82
2022/11/23 02:01:42;;;;;;;26.65;12.23;;;19.30;62.20;;;;;;4946001;28;20035;-83
2022/11/23 02:04:13;;;;;;;19.83;11.20;;;19.30;62.20;;;;;;4945055;28;20440;-83
2022/11/23 02:06:44;;;;;;;21.90;12.13;;;19.30;62.10;;;;;;4950001;28;20097;-83
2022/11/23 02:09:11;;;;;;;22.83;12.40;;;19.30;62.10;;;;;;4951173;29;20031;-83
2022/11/23 02:11:36;;;;;;;24.25;12.05;;;19.20;62.00;;;;;;4950874;28;20043;-83
2022/11/23 02:14:02;;;;;;;21.13;11.20;;;19.20;61.90;;;;;;4942113;29;20042;-83
2022/11/23 02:16:29;;;;;;;20.92;11.90;;;19.20;61.90;;;;;;4966039;28;20044;-82
2022/11/23 02:18:55;;;;;;;23.42;11.85;;;19.20;62.00;;;;;;4949398;28;20422;-82
2022/11/23 02:21:22;;;;;;;22.27;11.65;;;19.20;62.10;;;;;;4951131;28;20019;-82
2022/11/23 02:23:59;;;;;;;18.30;11.18;;;19.20;61.90;;;;;;4936351;29;20039;-83
2022/11/23 02:26:28;;;;;;;21.98;10.90;;;19.20;62.00;;;;;;4952236;28;20027;-83
2022/11/23 02:29:17;;;;;;;19.63;10.93;;;19.20;62.00;;;;;;4954895;28;20062;-82
2022/11/23 02:31:42;;;;;;;19.95;11.05;;;19.10;62.00;;;;;;4932137;28;20493;-82
2022/11/23 02:34:08;;;;;;;20.52;12.10;;;19.10;61.90;;;;;;4980741;28;20059;-81
2022/11/23 02:36:39;;;;;;;21.95;10.98;;;19.10;61.90;;;;;;4970151;28;20031;-83
2022/11/23 02:39:11;;;;;;;19.27;10.52;;;19.10;61.90;;;;;;4950560;28;20031;-83
2022/11/23 02:41:45;;;;;;;24.58;12.25;;;19.10;62.20;;;;;;4942324;28;20110;-82
2022/11/23 02:44:32;;;;;;;23.80;11.35;;;19.10;62.20;;;;;;4958193;28;20026;-82
2022/11/23 02:46:58;;;;;;;23.75;11.35;;;19.10;61.90;;;;;;4946295;28;20456;-82
2022/11/23 02:49:24;;;;;;;23.17;10.80;;;19.10;61.70;;;;;;4938116;28;20041;-82
2022/11/23 02:51:51;;;;;;;19.00;10.68;;;19.00;61.70;;;;;;4959379;28;20189;-82
2022/11/23 02:54:17;;;;;;;24.02;10.77;;;19.00;61.60;;;;;;4956281;28;20118;-82
2022/11/23 02:56:43;;;;;;;19.25;10.90;;;19.00;61.40;;;;;;4963649;28;20572;-82
2022/11/23 02:59:08;;;;;;;21.92;11.20;;;19.00;61.40;;;;;;4955617;28;20027;-82
2022/11/23 03:01:34;;;;;;;18.35;10.70;;;19.00;61.40;;;;;;4956483;28;20106;-82
2022/11/23 03:04:00;;;;;;;18.67;10.98;;;19.00;61.40;;;;;;4961362;28;20126;-82
2022/11/23 03:06:28;;;;;;;23.40;10.95;;;19.00;61.40;;;;;;4973015;28;20130;-82
2022/11/23 03:08:54;;;;;;;18.58;10.45;;;19.00;61.30;;;;;;4959780;28;20072;-82
2022/11/23 03:11:20;;;;;;;19.02;10.65;;;19.00;61.30;;;;;;4955402;28;20034;-82
2022/11/23 03:13:46;;;;;;;18.38;10.88;;;19.00;61.30;;;;;;4963340;28;20031;-82
2022/11/23 03:16:12;;;;;;;17.88;10.20;;;19.00;61.20;;;;;;4951302;28;20035;-82
2022/11/23 03:18:38;;;;;;;21.35;9.95;;;19.00;61.30;;;;;;4960353;28;20035;-82
2022/11/23 03:21:07;;;;;;;20.38;10.38;;;19.00;61.20;;;;;;4943512;28;20038;-82
2022/11/23 03:23:36;;;;;;;18.67;10.23;;;19.00;61.20;;;;;;4966262;28;20374;-82
2022/11/23 03:26:04;;;;;;;23.35;10.70;;;19.00;61.30;;;;;;4956962;28;20035;-82
2022/11/23 03:28:35;;;;;;;23.65;11.32;;;19.00;61.30;;;;;;4938176;28;20378;-82
2022/11/23 03:31:01;;;;;;;15.07;9.93;;;19.00;61.40;;;;;;4951774;28;20067;-82
2022/11/23 03:33:27;;;;;;;18.25;10.73;;;19.00;61.30;;;;;;4960350;28;20036;-84
2022/11/23 03:35:53;;;;;;;18.10;10.25;;;19.00;61.40;;;;;;4952957;28;20118;-84
2022/11/23 03:38:22;;;;;;;17.73;9.85;;;19.00;61.50;;;;;;4957281;28;20055;-83
2022/11/23 03:40:48;;;;;;;21.60;10.73;;;19.00;61.50;;;;;;4962994;28;20058;-84
2022/11/23 03:43:20;;;;;;;17.30;9.95;;;19.00;61.40;;;;;;4961197;28;20094;-83
2022/11/23 03:45:46;;;;;;;17.58;10.10;;;19.00;61.60;;;;;;4920573;29;20027;-84
2022/11/23 03:48:13;;;;;;;19.55;10.30;;;19.00;61.50;;;;;;4947080;28;20090;-84
2022/11/23 03:50:38;;;;;;;17.35;9.98;;;19.00;61.60;;;;;;4928965;29;20053;-83
2022/11/23 03:53:05;;;;;;;17.52;9.65;;;19.00;61.60;;;;;;4962643;28;20035;-83
2022/11/23 03:55:33;;;;;;;17.20;9.63;;;19.00;61.50;;;;;;4978212;28;20438;-84
2022/11/23 03:57:59;;;;;;;16.48;10.10;;;19.00;62.10;;;;;;4949883;28;20026;-84
2022/11/23 04:00:30;;;;;;;17.25;9.20;;;19.00;61.60;;;;;;4942337;28;20031;-84
2022/11/23 04:02:57;;;;;;;16.65;10.07;;;19.00;61.60;;;;;;4953332;28;20031;-83
2022/11/23 04:05:41;;;;;;;16.38;9.95;;;19.00;61.60;;;;;;4955243;28;20027;-84
2022/11/23 04:08:46;;;;;;;17.85;10.35;;;19.00;61.60;;;;;;4956681;28;20593;-84
2022/11/23 04:11:19;;;;;;;16.55;10.07;;;19.00;61.60;;;;;;4967913;28;20545;-83
2022/11/23 04:13:47;;;;;;;18.52;9.68;;;19.00;61.50;;;;;;4931142;29;20027;-84
2022/11/23 04:16:13;;;;;;;16.73;9.95;;;19.00;61.60;;;;;;4994306;28;20589;-84
2022/11/23 04:18:40;;;;;;;17.95;10.00;;;19.00;61.60;;;;;;4940179;29;20039;-84
2022/11/23 04:21:07;;;;;;;17.42;9.75;;;19.00;61.50;;;;;;4950550;28;20503;-84
2022/11/23 04:23:33;;;;;;;18.00;9.43;;;19.00;61.50;;;;;;4956656;28;20059;-84
2022/11/23 04:26:00;;;;;;;16.45;10.05;;;18.90;61.40;;;;;;4947924;28;20030;-84
2022/11/23 04:28:27;;;;;;;15.75;8.85;;;18.90;61.50;;;;;;4964087;28;20045;-84
2022/11/23 04:30:53;;;;;;;20.23;10.18;;;19.00;61.40;;;;;;4945366;29;20389;-83
2022/11/23 04:33:19;;;;;;;17.27;9.93;;;19.00;61.50;;;;;;4948310;28;20129;-84
2022/11/23 04:35:45;;;;;;;16.67;9.45;;;19.00;61.40;;;;;;4954309;28;20583;-83
2022/11/23 04:38:11;;;;;;;15.93;9.27;;;19.00;61.40;;;;;;4958629;28;20489;-84
2022/11/23 04:40:37;;;;;;;15.35;9.60;;;19.00;61.40;;;;;;4964237;28;20027;-84
2022/11/23 04:43:05;;;;;;;18.17;9.15;;;19.00;61.40;;;;;;4936373;29;20035;-84
2022/11/23 04:45:37;;;;;;;19.13;9.07;;;19.00;61.40;;;;;;4946850;29;20031;-84
2022/11/23 04:48:06;;;;;;;17.23;9.52;;;19.00;61.40;;;;;;4948157;28;20031;-84
2022/11/23 04:50:34;;;;;;;16.92;9.80;;;18.90;61.30;;;;;;4944040;28;20027;-83
2022/11/23 04:53:00;;;;;;;16.55;10.07;;;19.00;61.40;;;;;;4953105;28;20397;-83
2022/11/23 04:55:34;;;;;;;17.95;9.77;;;19.00;61.30;;;;;;4952510;28;20480;-84
2022/11/23 04:58:01;;;;;;;14.27;8.98;;;19.00;61.40;;;;;;4976596;28;20039;-84
2022/11/23 05:00:30;;;;;;;17.38;9.70;;;19.00;61.60;;;;;;4960575;28;20031;-83
2022/11/23 05:03:00;;;;;;;15.38;9.65;;;19.00;61.60;;;;;;4991172;28;20086;-82
2022/11/23 05:05:30;;;;;;;16.80;9.35;;;19.00;61.60;;;;;;4947724;28;20023;-82
2022/11/23 05:07:56;;;;;;;18.58;9.30;;;18.90;61.40;;;;;;4966955;28;20066;-81
2022/11/23 05:10:25;;;;;;;15.88;9.07;;;18.90;61.40;;;;;;4952188;28;20043;-83
2022/11/23 05:12:55;;;;;;;16.80;9.40;;;18.90;61.40;;;;;;4949559;28;20035;-83
2022/11/23 05:15:21;;;;;;;13.45;9.00;;;18.90;61.40;;;;;;4943147;28;20042;-82
2022/11/23 05:17:48;;;;;;;16.08;9.75;;;18.90;61.40;;;;;;4953535;28;20031;-83
2022/11/23 05:20:22;;;;;;;15.10;9.07;;;18.90;61.40;;;;;;4949958;28;20059;-84
2022/11/23 05:22:48;;;;;;;15.73;9.82;;;18.90;61.40;;;;;;4949552;28;20125;-82
2022/11/23 05:25:18;;;;;;;15.23;9.18;;;18.90;61.50;;;;;;4981794;28;20537;-82
2022/11/23 05:27:46;;;;;;;17.30;9.75;;;18.90;61.40;;;;;;4965375;28;20026;-83
2022/11/23 05:30:13;;;;;;;14.02;9.10;;;19.00;61.50;;;;;;4947939;28;20485;-83
2022/11/23 05:32:40;;;;;;;17.33;9.98;;;19.00;61.40;;;;;;4956351;28;20071;-83
2022/11/23 05:35:07;;;;;;;16.60;8.98;;;19.00;61.50;;;;;;4948715;28;20031;-84
2022/11/23 05:37:35;;;;;;;15.63;9.02;;;19.00;61.40;;;;;;4942968;28;20098;-84
2022/11/23 05:40:04;;;;;;;17.58;9.88;;;18.90;61.40;;;;;;4953998;28;20063;-81
2022/11/23 05:42:30;;;;;;;16.75;9.82;;;18.90;61.50;;;;;;4959725;28;20490;-83
2022/11/23 05:45:03;;;;;;;14.57;8.95;;;19.00;61.50;;;;;;4964241;28;20035;-83
2022/11/23 05:47:40;;;;;;;16.65;9.40;;;19.00;61.50;;;;;;4958651;28;20030;-83
2022/11/23 05:50:13;;;;;;;16.67;9.10;;;19.00;61.60;;;;;;4964542;28;20034;-84
2022/11/23 05:52:42;;;;;;;16.27;9.30;;;19.00;61.50;;;;;;4966342;28;20027;-84
2022/11/23 05:55:08;;;;;;;14.98;8.93;;;19.00;61.60;;;;;;4964410;28;20058;-84
2022/11/23 05:57:34;;;;;;;14.40;9.00;;;19.00;61.70;;;;;;4935926;28;20445;-84
2022/11/23 06:00:00;;;;;;;16.90;9.32;;;19.00;61.70;;;;;;4953605;28;20031;-84
2022/11/23 06:02:38;;;;;;;14.68;8.95;;;18.90;61.60;;;;;;4962311;28;20054;-84
2022/11/23 06:05:05;;;;;;;15.13;8.52;;;18.90;61.70;;;;;;4937055;29;20497;-83
2022/11/23 06:07:40;;;;;;;15.88;8.75;;;19.00;61.70;;;;;;4953295;29;20117;-83
2022/11/23 06:10:11;;;;;;;14.57;8.93;;;19.00;61.60;;;;;;4936580;29;20497;-84
2022/11/23 06:12:39;;;;;;;15.50;9.05;;;19.00;61.70;;;;;;4945763;28;20489;-85
2022/11/23 06:15:09;;;;;;;16.33;9.67;;;19.00;61.70;;;;;;4951808;28;20089;-84
2022/11/23 06:17:35;;;;;;;13.85;8.98;;;19.00;61.70;;;;;;4986910;28;20035;-84
2022/11/23 06:20:05;;;;;;;14.48;8.75;;;19.00;61.70;;;;;;4948671;28;20484;-83
2022/11/23 06:22:33;;;;;;;14.98;9.55;;;19.00;61.80;;;;;;4948375;28;20035;-83
2022/11/23 06:25:01;;;;;;;15.02;9.05;;;19.00;61.70;;;;;;4957932;28;20053;-83
2022/11/23 06:27:32;;;;;;;14.30;8.52;;;18.90;61.80;;;;;;4963474;28;20027;-83
2022/11/23 06:30:02;;;;;;;14.68;9.10;;;18.90;61.90;;;;;;4955993;28;20528;-82
2022/11/23 06:32:30;;;;;;;14.27;9.35;;;19.00;61.70;;;;;;4967220;28;20031;-82
2022/11/23 06:34:56;;;;;;;13.43;8.57;;;18.90;61.70;;;;;;4955572;28;20038;-82
2022/11/23 06:37:22;;;;;;;13.75;9.07;;;18.90;61.80;;;;;;4951344;28;20023;-83
2022/11/23 06:39:51;;;;;;;15.63;8.30;;;18.90;61.60;;;;;;4969814;28;20516;-83
2022/11/23 06:42:17;;;;;;;11.93;8.18;;;18.90;61.60;;;;;;4925129;29;20032;-83
2022/11/23 06:44:42;;;;;;;18.25;8.45;;;18.90;61.60;;;;;;4958520;28;20494;-82
2022/11/23 06:47:09;;;;;;;13.95;9.00;;;18.90;61.60;;;;;;4938248;29;20122;-81
2022/11/23 06:49:35;;;;;;;13.38;8.60;;;18.90;61.70;;;;;;4967968;28;20043;-82
2022/11/23 06:52:12;;;;;;;14.23;9.20;;;18.90;61.70;;;;;;4960124;28;20027;-82
2022/11/23 06:54:39;;;;;;;13.88;9.32;;;18.90;61.70;;;;;;4931817;28;20037;-82
2022/11/23 06:57:08;;;;;;;15.15;8.73;;;18.90;61.70;;;;;;4961953;28;20070;-83
2022/11/23 06:59:34;;;;;;;16.00;8.57;;;18.90;61.70;;;;;;4962852;28;20027;-83
2022/11/23 07:02:03;;;;;;;18.08;9.43;;;18.90;61.60;;;;;;4955255;28;20036;-83
2022/11/23 07:04:33;;;;;;;16.25;9.60;;;18.90;61.80;;;;;;4973834;28;20031;-83
2022/11/23 07:07:04;;;;;;;17.50;9.35;;;18.90;61.80;;;;;;4958514;28;20039;-82
2022/11/23 07:09:38;;;;;;;14.60;8.73;;;18.90;61.80;;;;;;4959500;28;20058;-84
2022/11/23 07:12:28;;;;;;;14.52;8.85;;;18.90;61.80;;;;;;4959059;28;20067;-83
2022/11/23 07:14:54;;;;;;;14.32;9.10;;;18.90;61.70;;;;;;4952137;28;20031;-83
2022/11/23 07:17:20;;;;;;;13.57;8.98;;;18.90;61.80;;;;;;4927325;28;20031;-83
2022/11/23 07:19:46;;;;;;;15.07;8.82;;;18.90;61.90;;;;;;4927984;29;20094;-83
2022/11/23 07:22:12;;;;;;;13.27;9.02;;;18.90;61.80;;;;;;4938798;29;20090;-84
2022/11/23 07:24:39;;;;;;;17.25;8.88;;;18.90;61.90;;;;;;4943474;28;20389;-83
2022/11/23 07:27:06;;;;;;;15.35;9.35;;;18.90;61.90;;;;;;4949413;28;20074;-83
2022/11/23 07:29:32;;;;;;;13.50;8.85;;;18.90;61.90;;;;;;4984342;28;20035;-83
2022/11/23 07:31:59;;;;;;;14.85;8.90;;;18.90;62.20;;;;;;4961258;28;20034;-83
2022/11/23 07:34:27;;;;;;;13.45;8.52;;;18.90;62.00;;;;;;4951234;28;20552;-83
2022/11/23 07:36:54;;;;;;;15.15;8.93;;;19.00;62.10;;;;;;4958413;28;20766;-83
2022/11/23 07:39:20;;;;;;;13.80;9.30;;;18.90;62.00;;;;;;4957218;28;20039;-82
2022/11/23 07:41:49;;;;;;;14.82;8.70;;;18.90;62.10;;;;;;4963517;28;20030;-83
2022/11/23 07:44:35;;;;;;;14.13;8.65;;;18.90;62.00;;;;;;4980213;28;20538;-83
2022/11/23 07:47:01;;;;;;;15.45;8.98;;;18.90;62.20;;;;;;4942384;29;20086;-82
2022/11/23 07:49:27;;;;;;;15.25;9.20;;;18.90;62.20;;;;;;4997260;28;20039;-82
2022/11/23 07:51:54;;;;;;;18.58;9.25;;;19.00;62.30;;;;;;4954872;28;20572;-80
2022/11/23 07:54:20;;;;;;;15.38;9.05;;;18.90;62.20;;;;;;4956937;28;20027;-81
2022/11/23 07:56:46;;;;;;;16.67;9.05;;;19.00;62.20;;;;;;4941401;28;20110;-81
2022/11/23 07:59:12;;;;;;;14.93;9.30;;;18.90;62.10;;;;;;4985950;28;20032;-80
2022/11/23 08:01:38;;;;;;;15.98;8.13;;;18.90;62.10;;;;;;4931132;28;20756;-81
2022/11/23 08:04:04;;;;;;;13.40;8.75;;;18.90;62.10;;;;;;4955106;28;20054;-81
2022/11/23 08:06:30;;;;;;;14.63;8.88;;;18.90;62.20;;;;;;4950410;28;20481;-81
2022/11/23 08:08:56;;;;;;;16.00;9.57;;;18.90;62.10;;;;;;4956109;28;20074;-81
2022/11/23 08:11:22;;;;;;;17.10;9.15;;;18.90;62.10;;;;;;4972466;28;20054;-80
2022/11/23 08:13:47;;;;;;;14.80;8.65;;;18.90;62.10;;;;;;4952291;28;20027;-80
2022/11/23 08:16:13;;;;;;;18.67;8.75;;;18.90;62.20;;;;;;4961564;28;20035;-81
2022/11/23 08:18:39;;;;;;;14.45;8.05;;;18.90;62.30;;;;;;4950569;28;20171;-80
2022/11/23 08:21:05;;;;;;;14.07;9.23;;;18.90;62.30;;;;;;4955192;28;20031;-82
2022/11/23 08:23:31;;;;;;;16.00;8.95;;;18.90;62.20;;;;;;4960507;28;20027;-80
2022/11/23 08:25:57;;;;;;;13.07;8.55;;;18.90;62.30;;;;;;4943158;29;20082;-80
2022/11/23 08:28:22;;;;;;;13.93;8.73;;;18.90;62.30;;;;;;4956762;28;20024;-80
2022/11/23 08:30:48;;;;;;;12.82;8.55;;;18.90;62.30;;;;;;4946923;28;20046;-83
2022/11/23 08:33:14;;;;;;;14.75;8.98;;;18.90;62.40;;;;;;4949479;28;20613;-85
2022/11/23 08:35:41;;;;;;;14.98;9.02;;;18.90;62.40;;;;;;4951753;28;20480;-75
2022/11/23 08:38:08;;;;;;;16.75;8.90;;;19.00;62.30;;;;;;4966401;28;20078;-75
2022/11/23 08:40:35;;;;;;;25.83;15.27;;;18.90;62.40;;;;;;4958760;28;20026;-75
2022/11/23 08:43:01;;;;;;;27.58;18.15;;;18.60;52.70;;;;;;4966143;28;20081;-75
2022/11/23 08:45:27;;;;;;;25.13;16.90;;;18.00;47.30;;;;;;4963107;28;20234;-75
2022/11/23 08:47:54;;;;;;;24.27;16.80;;;17.60;46.80;;;;;;4960789;28;20027;-75
2022/11/23 08:50:20;;;;;;;34.15;18.27;;;17.40;46.80;;;;;;4953350;28;20034;-75
2022/11/23 08:52:46;;;;;;;24.63;16.52;;;17.20;46.20;;;;;;4936254;29;20030;-75
2022/11/23 08:55:12;;;;;;;26.67;15.18;;;17.30;48.50;;;;;;4961007;28;20035;-75
2022/11/23 08:57:37;;;;;;;44.30;14.35;;;17.60;51.00;;;;;;4959350;28;20091;-75
2022/11/23 09:00:04;;;;;;;28.02;13.50;;;18.00;51.20;;;;;;4958634;28;20062;-75
2022/11/23 09:02:30;;;;;;;26.38;15.63;;;18.20;50.40;;;;;;4962198;28;20106;-75
2022/11/23 09:04:56;;;;;;;30.35;16.50;;;18.40;50.90;;;;;;4958901;28;20114;-75
2022/11/23 09:07:22;;;;;;;26.40;17.48;;;18.50;50.50;;;;;;4951162;28;20473;-75
2022/11/23 09:09:48;;;;;;;34.28;16.02;;;18.70;50.70;;;;;;4961389;28;20512;-75
2022/11/23 09:12:13;;;;;;;24.02;16.25;;;18.80;51.10;;;;;;4963318;28;20034;-75
2022/11/23 09:14:39;;;;;;;25.90;15.20;;;18.80;51.30;;;;;;4962633;28;20065;-75
2022/11/23 09:17:05;;;;;;;30.45;14.52;;;18.90;51.50;;;;;;4956660;28;20031;-75
2022/11/23 09:19:31;;;;;;;25.27;14.32;;;19.00;51.80;;;;;;4966147;28;20039;-75
2022/11/23 09:21:57;;;;;;;20.42;14.00;;;19.00;52.10;;;;;;4957956;28;20031;-75
2022/11/23 09:24:24;;;;;;;23.17;14.00;;;19.00;52.20;;;;;;4943450;28;20514;-75
2022/11/23 09:26:50;;;;;;;24.27;13.98;;;19.10;52.60;;;;;;4951941;28;20023;-75
2022/11/23 09:29:15;;;;;;;22.92;13.02;;;19.10;52.90;;;;;;4960174;28;20122;-75
2022/11/23 09:31:41;;;;;;;19.27;12.93;;;19.10;52.90;;;;;;4952186;28;20130;-75
2022/11/23 09:34:11;;;;;;;26.15;12.90;;;19.10;53.10;;;;;;4959866;28;20058;-75
2022/11/23 09:36:37;;;;;;;20.73;13.43;;;19.10;53.30;;;;;;4961583;28;20030;-76
2022/11/23 09:39:03;;;;;;;23.50;13.40;;;19.20;56.80;;;;;;4950788;28;20111;-67
2022/11/23 09:41:53;;;;;;;19.73;13.13;;;19.30;58.80;;;;;;4950183;28;20030;-67
2022/11/23 09:44:42;;;;;;;24.63;14.38;;;19.30;57.30;;;;;;4947702;28;20067;-77
2022/11/23 09:47:38;;;;;;;22.10;14.40;;;19.40;58.10;;;;;;4957261;28;20039;-77
2022/11/23 09:50:06;;;;;;;45.10;22.90;;;19.50;57.30;;;;;;4955517;28;20126;-77
2022/11/23 09:52:35;;;;;;;71.18;37.58;;;19.50;56.20;;;;;;4964477;28;20034;-76
2022/11/23 09:55:10;;;;;;;87.90;40.85;;;19.60;56.10;;;;;;4956022;28;20086;-77
2022/11/23 09:57:39;;;;;;;86.30;41.60;;;19.50;56.20;;;;;;4948242;28;20158;-77
2022/11/23 10:00:19;;;;;;;82.22;42.28;;;19.60;56.60;;;;;;4955637;28;20035;-76
2022/11/23 10:02:46;;;;;;;86.00;45.47;;;19.50;57.40;;;;;;4967014;28;20030;-77
2022/11/23 10:05:22;;;;;;;78.40;38.92;;;19.60;59.10;;;;;;4957374;28;20058;-76
2022/11/23 10:08:18;;;;;;;69.47;35.08;;;19.60;57.50;;;;;;4967977;28;20501;-77
2022/11/23 10:10:56;;;;;;;60.42;33.20;;;19.60;56.60;;;;;;4948903;28;20035;-77
2022/11/23 10:13:29;;;;;;;65.03;35.70;;;19.60;56.60;;;;;;4942627;28;20039;-77
2022/11/23 10:16:12;;;;;;;68.82;34.28;;;19.60;56.90;;;;;;4950425;28;20019;-79
2022/11/23 10:19:03;;;;;;;64.32;33.63;;;19.60;57.30;;;;;;4970551;28;20038;-75
2022/11/23 10:21:36;;;;;;;56.67;30.92;;;19.60;57.40;;;;;;4950512;28;20034;-75
2022/11/23 10:24:20;;;;;;;55.03;29.15;;;19.60;57.20;;;;;;4945973;28;20035;-75
2022/11/23 10:26:49;;;;;;;41.85;23.25;;;19.70;57.00;;;;;;4946111;28;20135;-80
2022/11/23 10:29:30;;;;;;;41.70;21.77;;;19.60;58.30;;;;;;4932087;29;20027;-80
2022/11/23 10:31:57;;;;;;;38.47;22.02;;;19.60;59.00;;;;;;4933336;29;20050;-79
2022/11/23 10:34:50;;;;;;;41.92;22.40;;;19.50;59.10;;;;;;4946615;29;20032;-80
2022/11/23 10:37:16;;;;;;;45.75;23.73;;;19.50;59.50;;;;;;4947280;29;20023;-81
2022/11/23 10:39:43;;;;;;;47.88;24.52;;;19.50;59.10;;;;;;4949281;29;20029;-80
2022/11/23 10:42:31;;;;;;;43.15;23.52;;;19.60;58.80;;;;;;4948857;28;20031;-81
2022/11/23 10:44:58;;;;;;;38.08;21.90;;;19.50;58.90;;;;;;4947449;29;20031;-81
2022/11/23 10:47:37;;;;;;;36.60;20.95;;;19.50;59.30;;;;;;4939340;29;20397;-80
2022/11/23 10:50:24;;;;;;;32.03;16.05;;;19.50;59.80;;;;;;4972324;28;20046;-81
2022/11/23 10:52:59;;;;;;;33.38;16.83;;;19.50;56.50;;;;;;4954299;28;20138;-78
2022/11/23 10:55:29;;;;;;;39.17;19.13;;;19.60;57.10;;;;;;4952013;28;20089;-80
2022/11/23 10:57:56;;;;;;;37.75;19.95;;;19.60;58.90;;;;;;4922920;28;20034;-78
2022/11/23 11:00:23;;;;;;;35.50;18.58;;;19.60;58.50;;;;;;4946386;28;20481;-80
2022/11/23 11:02:55;;;;;;;37.00;19.10;;;19.70;57.90;;;;;;4959493;28;20035;-81
2022/11/23 11:05:33;;;;;;;37.30;18.15;;;19.70;58.50;;;;;;4944392;28;20031;-81
2022/11/23 11:08:21;;;;;;;33.53;19.05;;;19.70;58.30;;;;;;4950082;28;20432;-79
2022/11/23 11:10:48;;;;;;;41.03;18.30;;;19.70;58.90;;;;;;4947248;28;20050;-80
2022/11/23 11:13:21;;;;;;;38.70;17.40;;;19.70;58.60;;;;;;4951379;28;20097;-79
2022/11/23 11:15:52;;;;;;;32.03;17.58;;;19.70;59.20;;;;;;4945603;28;20038;-80
2022/11/23 11:18:18;;;;;;;37.92;17.67;;;19.80;59.10;;;;;;4941942;28;20413;-84
2022/11/23 11:20:45;;;;;;;36.20;18.25;;;19.80;59.70;;;;;;4983010;28;20059;-81
2022/11/23 11:23:19;;;;;;;41.60;20.27;;;19.70;59.60;;;;;;4951714;28;20023;-81
2022/11/23 11:25:46;;;;;;;39.92;18.13;;;19.70;58.60;;;;;;4947374;28;20035;-81
2022/11/23 11:28:32;;;;;;;38.40;19.00;;;19.70;58.20;;;;;;4947224;28;20444;-81
2022/11/23 11:31:04;;;;;;;31.35;16.70;;;19.70;58.40;;;;;;4948891;28;20557;-80
2022/11/23 11:34:23;;;;;;;31.05;17.33;;;19.70;58.20;;;;;;4947705;29;20034;-81
2022/11/23 11:37:08;;;;;;;34.22;17.88;;;19.70;58.30;;;;;;4931764;29;20040;-81
2022/11/23 11:39:46;;;;;;;34.95;17.95;;;19.70;58.50;;;;;;4949750;28;20027;-81
2022/11/23 11:42:40;;;;;;;32.10;16.35;;;19.70;58.20;;;;;;4948875;29;20502;-81
2022/11/23 11:45:15;;;;;;;29.25;17.33;;;19.70;58.50;;;;;;4949675;28;20046;-81
2022/11/23 11:47:48;;;;;;;32.80;16.50;;;19.70;59.10;;;;;;4950582;28;20043;-81
2022/11/23 11:50:24;;;;;;;29.83;16.63;;;19.70;58.60;;;;;;4950525;28;20035;-81
2022/11/23 11:52:57;;;;;;;30.05;17.58;;;19.70;58.60;;;;;;4948580;28;20031;-80
2022/11/23 11:55:38;;;;;;;29.50;16.50;;;19.80;59.00;;;;;;4949137;29;20126;-81
2022/11/23 11:58:09;;;;;;;28.13;15.82;;;19.80;58.60;;;;;;4948555;29;20038;-80
2022/11/23 12:00:38;;;;;;;33.75;16.15;;;19.70;58.60;;;;;;4933773;29;20031;-80
2022/11/23 12:03:43;;;;;;;28.70;15.97;;;19.70;58.50;;;;;;4918777;29;20038;-81
2022/11/23 12:06:25;;;;;;;27.95;15.43;;;19.70;58.50;;;;;;4987486;28;20282;-78
2022/11/23 12:08:58;;;;;;;31.73;17.27;;;19.70;59.60;;;;;;4912616;29;20023;-77
2022/11/23 12:11:24;;;;;;;30.30;16.58;;;19.70;59.00;;;;;;4947693;28;20066;-78
2022/11/23 12:13:58;;;;;;;30.98;16.60;;;19.70;59.00;;;;;;4951470;28;20062;-78
2022/11/23 12:16:31;;;;;;;28.58;16.17;;;19.80;59.30;;;;;;4952828;28;20027;-79
2022/11/23 12:19:38;;;;;;;28.88;15.77;;;19.80;59.30;;;;;;4931795;28;20463;-79
2022/11/23 12:22:13;;;;;;;33.17;16.58;;;19.80;59.90;;;;;;4931653;29;20490;-80
2022/11/23 12:25:10;;;;;;;28.40;15.95;;;19.80;60.00;;;;;;4951632;28;20138;-80
2022/11/23 12:27:45;;;;;;;27.38;15.50;;;19.80;59.80;;;;;;4963600;28;20139;-80
2022/11/23 12:30:36;;;;;;;28.27;15.57;;;19.80;60.00;;;;;;4951883;29;20039;-80
2022/11/23 12:33:26;;;;;;;29.02;15.07;;;19.80;60.00;;;;;;4947527;28;20036;-81
2022/11/23 12:36:10;;;;;;;27.98;15.30;;;19.80;59.80;;;;;;4937310;28;20386;-82
2022/11/23 12:38:48;;;;;;;25.23;15.32;;;19.90;59.80;;;;;;4956073;28;20720;-79
2022/11/23 12:41:29;;;;;;;25.17;14.95;;;19.90;60.10;;;;;;4949553;28;20027;-80
2022/11/23 12:44:34;;;;;;;28.42;15.40;;;19.90;60.50;;;;;;4934855;29;20136;-88
2022/11/23 12:47:23;;;;;;;33.88;16.02;;;19.90;60.30;;;;;;4952051;28;20134;-76
2022/11/23 12:50:20;;;;;;;32.70;15.25;;;19.90;61.00;;;;;;4950571;28;20034;-84